createdAt,value
2018-11-03T00:01:14.924Z,76.4
2018-11-03T00:17:49.988Z,76.0
2018-11-03T00:34:25.135Z,76.4
2018-11-03T00:51:00.110Z,76.8
2018-11-03T01:07:35.078Z,76.8
2018-11-03T01:24:09.791Z,76.8
2018-11-03T01:40:43.962Z,77.6
2018-11-03T01:57:18.489Z,77.6
2018-11-03T02:13:52.668Z,77.6
2018-11-03T02:30:27.123Z,77.6
2018-11-03T02:47:01.523Z,77.6
2018-11-03T03:03:36.608Z,77.6
2018-11-03T03:20:09.764Z,77.6
2018-11-03T03:36:43.725Z,78.0
2018-11-03T03:53:17.548Z,78.0
2018-11-03T04:09:51.354Z,78.0
2018-11-03T04:26:25.019Z,78.4
2018-11-03T04:42:58.662Z,78.8
2018-11-03T04:59:32.375Z,78.8
2018-11-03T05:16:05.988Z,78.8
2018-11-03T05:32:39.660Z,78.8
2018-11-03T05:49:13.455Z,79.2
2018-11-03T06:05:47.366Z,78.8
2018-11-03T06:22:21.079Z,78.4
2018-11-03T06:38:54.901Z,78.8
2018-11-03T06:55:28.212Z,79.2
2018-11-03T07:12:02.229Z,79.6
2018-11-03T07:28:36.891Z,79.6
2018-11-03T07:45:11.166Z,79.2
2018-11-03T08:01:45.939Z,79.6
2018-11-03T08:18:20.941Z,79.2
2018-11-03T08:34:55.922Z,78.8
2018-11-03T08:51:31.382Z,79.2
2018-11-03T09:08:06.971Z,79.2
2018-11-03T09:24:43.435Z,79.2
2018-11-03T09:41:18.983Z,78.8
2018-11-03T09:57:55.489Z,78.8
2018-11-03T10:14:31.633Z,79.2
2018-11-03T10:31:08.345Z,78.4
2018-11-03T10:47:45.400Z,78.4
2018-11-03T11:04:22.630Z,78.0
2018-11-03T11:21:00.201Z,77.2
2018-11-03T11:37:37.908Z,77.2
2018-11-03T11:54:15.763Z,76.4
2018-11-03T12:10:53.838Z,76.0
2018-11-03T12:27:32.304Z,75.2
2018-11-03T12:44:10.906Z,74.8
2018-11-03T13:00:49.440Z,74.4
2018-11-03T13:17:27.926Z,72.8
2018-11-03T13:34:06.870Z,72.4
2018-11-03T13:50:44.931Z,71.6
2018-11-03T14:07:23.463Z,71.2
2018-11-03T14:24:01.916Z,70.8
2018-11-03T14:40:40.109Z,71.2
2018-11-03T14:57:18.357Z,71.6
2018-11-03T15:13:56.961Z,72.0
2018-11-03T15:30:33.917Z,72.0
2018-11-03T15:47:11.579Z,72.8
2018-11-03T16:03:49.003Z,73.2
2018-11-03T16:20:26.245Z,73.6
2018-11-03T16:37:03.453Z,74.0
2018-11-03T16:53:39.913Z,74.8
2018-11-03T17:10:16.725Z,75.2
2018-11-03T17:26:53.295Z,75.2
2018-11-03T17:43:29.512Z,75.6
2018-11-03T18:00:05.845Z,76.0
2018-11-03T18:16:41.868Z,76.4
2018-11-03T18:33:18.041Z,76.4
2018-11-03T18:49:53.856Z,76.4
2018-11-03T19:06:29.604Z,76.4
2018-11-03T19:23:05.226Z,76.8
2018-11-03T19:39:40.919Z,77.2
2018-11-03T19:56:16.590Z,77.2
2018-11-03T20:12:51.582Z,76.8
2018-11-03T20:29:26.383Z,76.8
2018-11-03T20:46:01.092Z,77.2
2018-11-03T21:19:10.335Z,77.2
2018-11-03T21:35:44.733Z,77.6
2018-11-03T21:52:19.287Z,77.6
2018-11-03T22:08:53.836Z,77.6
2018-11-03T22:25:28.081Z,77.6
2018-11-03T22:42:02.428Z,77.6
2018-11-03T22:58:36.679Z,77.6
2018-11-03T23:15:10.742Z,77.6
2018-11-03T23:31:44.789Z,77.6
2018-11-03T23:48:18.803Z,77.6
